Cupira, Brazil
Current Conditions -  °F | °C
As of 3:00 PM on Saturday 20 Dec 2014 (Local Time) from SBMO Reporting Station
Scattered Clouds Scattered Clouds  
Wind Chill: 86°   Ceiling: Unl
Heat Index: 88°   Visibility: 6mi
Dew Point: 66°   Wind: 17mph
Humidity: 51%   Direction: 100°E
Pressure: 29.91"   Gusts: 29mph
Location:  8.62°S, 35.95°W
Report Text: SBMO 201800Z 10015G25KT 9999 SCT020 30/19 Q1013
Loading
Personal Weather Stations






























Interactive Weather Map New forecast layout! Learn more

10-Day Weather Forecast

Advertisements
Track Severe Weather on mobile